Time,TemperatureF,DewpointF,PressureIn,WindDirection,WindDirectionDegrees,WindSpeedMPH,WindSpeedGustMPH,Humidity,HourlyPrecipIn,Conditions,Clouds,dailyrainin,SoftwareType,DateUTC
2013-08-20 00:03:00,62.7,60.0,30.07,West,275,0.0,-999.0,91,-99.99,,,0.00,weatherlink.com 1.10,2013-08-20 04:03:00,
2013-08-20 00:18:00,62.3,60.0,30.07,West,275,0.0,-999.0,91,-99.99,,,0.00,weatherlink.com 1.10,2013-08-20 04:18:00,
2013-08-20 00:33:00,62.0,59.0,30.07,West,275,0.0,-999.0,91,-99.99,,,0.00,weatherlink.com 1.10,2013-08-20 04:33:00,
2013-08-20 00:48:00,61.7,59.0,30.07,West,275,0.0,-999.0,92,-99.99,,,0.00,weatherlink.com 1.10,2013-08-20 04:48:00,
2013-08-20 01:03:00,61.4,59.0,30.08,West,275,0.0,-999.0,92,-99.99,,,0.00,weatherlink.com 1.10,2013-08-20 05:03:00,
2013-08-20 01:18:00,61.1,59.0,30.07,West,275,0.0,-999.0,92,-99.99,,,0.00,weatherlink.com 1.10,2013-08-20 05:18:00,
2013-08-20 01:33:00,60.9,59.0,30.07,West,275,0.0,-999.0,92,-99.99,,,0.00,weatherlink.com 1.10,2013-08-20 05:33:00,
2013-08-20 01:48:00,60.5,59.0,30.07,West,275,0.0,-999.0,93,-99.99,,,0.00,weatherlink.com 1.10,2013-08-20 05:48:00,
2013-08-20 02:03:00,60.2,58.0,30.07,West,275,0.0,-999.0,93,-99.99,,,0.00,weatherlink.com 1.10,2013-08-20 06:03:00,
2013-08-20 02:18:00,59.9,58.0,30.07,West,275,0.0,-999.0,93,-99.99,,,0.00,weatherlink.com 1.10,2013-08-20 06:18:00,
2013-08-20 02:33:00,59.8,58.0,30.07,West,275,0.0,-999.0,93,-99.99,,,0.00,weatherlink.com 1.10,2013-08-20 06:33:00,
2013-08-20 02:48:00,59.6,58.0,30.07,West,275,0.0,-999.0,93,-99.99,,,0.00,weatherlink.com 1.10,2013-08-20 06:48:00,
2013-08-20 03:03:00,59.4,57.0,30.07,West,275,0.0,-999.0,93,-99.99,,,0.00,weatherlink.com 1.10,2013-08-20 07:03:00,
2013-08-20 03:18:00,59.0,57.0,30.08,West,275,0.0,-999.0,93,-99.99,,,0.00,weatherlink.com 1.10,2013-08-20 07:18:00,
2013-08-20 03:33:00,58.8,57.0,30.08,West,275,0.0,-999.0,93,-99.99,,,0.00,weatherlink.com 1.10,2013-08-20 07:33:00,
2013-08-20 03:48:00,58.6,57.0,30.07,West,275,0.0,-999.0,93,-99.99,,,0.00,weatherlink.com 1.10,2013-08-20 07:48:00,
2013-08-20 04:03:00,58.5,57.0,30.08,West,275,0.0,-999.0,93,-99.99,,,0.00,weatherlink.com 1.10,2013-08-20 08:03:00,
2013-08-20 04:18:00,58.4,56.0,30.07,West,275,0.0,-999.0,93,-99.99,,,0.00,weatherlink.com 1.10,2013-08-20 08:18:00,
2013-08-20 04:33:00,58.4,56.0,30.08,West,275,0.0,-999.0,93,-99.99,,,0.00,weatherlink.com 1.10,2013-08-20 08:33:00,
2013-08-20 04:48:00,58.4,57.0,30.08,West,275,0.0,-999.0,94,-99.99,,,0.00,weatherlink.com 1.10,2013-08-20 08:48:00,
2013-08-20 05:03:00,58.5,57.0,30.08,West,275,0.0,-999.0,94,-99.99,,,0.00,weatherlink.com 1.10,2013-08-20 09:03:00,
2013-08-20 05:18:00,58.7,57.0,30.08,West,275,0.0,-999.0,94,-99.99,,,0.00,weatherlink.com 1.10,2013-08-20 09:18:00,
2013-08-20 05:33:00,59.1,57.0,30.09,West,275,0.0,-999.0,94,-99.99,,,0.00,weatherlink.com 1.10,2013-08-20 09:33:00,
2013-08-20 05:48:00,59.5,58.0,30.09,West,275,0.0,-999.0,95,-99.99,,,0.00,weatherlink.com 1.10,2013-08-20 09:48:00,
2013-08-20 06:03:00,59.8,58.0,30.10,West,275,0.0,-999.0,95,-99.99,,,0.00,weatherlink.com 1.10,2013-08-20 10:03:00,
2013-08-20 06:18:00,60.1,59.0,30.11,West,275,0.0,-999.0,95,-99.99,,,0.00,weatherlink.com 1.10,2013-08-20 10:18:00,
2013-08-20 06:33:00,60.3,59.0,30.12,West,275,0.0,-999.0,95,-99.99,,,0.00,weatherlink.com 1.10,2013-08-20 10:33:00,
2013-08-20 06:48:00,60.6,59.0,30.12,West,275,0.0,-999.0,95,-99.99,,,0.00,weatherlink.com 1.10,2013-08-20 10:48:00,
2013-08-20 07:03:00,60.9,60.0,30.12,West,275,0.0,-999.0,95,-99.99,,,0.00,weatherlink.com 1.10,2013-08-20 11:03:00,
2013-08-20 07:18:00,61.3,60.0,30.12,West,275,0.0,-999.0,95,-99.99,,,0.00,weatherlink.com 1.10,2013-08-20 11:18:00,
2013-08-20 07:33:00,61.9,61.0,30.13,West,275,0.0,-999.0,95,-99.99,,,0.00,weatherlink.com 1.10,2013-08-20 11:33:00,
2013-08-20 07:48:00,62.2,61.0,30.14,West,275,0.0,-999.0,95,-99.99,,,0.00,weatherlink.com 1.10,2013-08-20 11:48:00,
2013-08-20 08:03:00,62.5,61.0,30.14,West,275,0.0,-999.0,95,-99.99,,,0.00,weatherlink.com 1.10,2013-08-20 12:03:00,
2013-08-20 08:18:00,62.9,62.0,30.14,West,275,0.0,-999.0,96,-99.99,,,0.00,weatherlink.com 1.10,2013-08-20 12:18:00,
2013-08-20 08:33:00,63.3,62.0,30.14,West,275,0.0,-999.0,95,-99.99,,,0.00,weatherlink.com 1.10,2013-08-20 12:33:00,
2013-08-20 08:49:00,63.9,63.0,30.15,West,275,0.0,-999.0,96,-99.99,,,0.00,weatherlink.com 1.10,2013-08-20 12:49:00,
2013-08-20 09:04:00,64.4,63.0,30.15,West,275,0.0,-999.0,96,-99.99,,,0.00,weatherlink.com 1.10,2013-08-20 13:04:00,
2013-08-20 09:19:00,65.0,64.0,30.15,West,275,0.0,-999.0,96,-99.99,,,0.00,weatherlink.com 1.10,2013-08-20 13:19:00,
2013-08-20 09:34:00,65.4,64.0,30.15,West,275,0.0,-999.0,96,-99.99,,,0.00,weatherlink.com 1.10,2013-08-20 13:34:00,
2013-08-20 09:49:00,65.7,65.0,30.15,West,275,0.0,-999.0,96,-99.99,,,0.00,weatherlink.com 1.10,2013-08-20 13:49:00,
2013-08-20 10:04:00,66.3,65.0,30.15,West,275,0.0,-999.0,96,-99.99,,,0.00,weatherlink.com 1.10,2013-08-20 14:04:00,
2013-08-20 10:19:00,67.2,66.0,30.16,SW,220,2.0,-999.0,95,-99.99,,,0.00,weatherlink.com 1.10,2013-08-20 14:19:00,
2013-08-20 10:34:00,68.8,67.0,30.16,SSW,205,0.0,-999.0,94,-99.99,,,0.00,weatherlink.com 1.10,2013-08-20 14:34:00,
2013-08-20 10:49:00,69.8,67.0,30.16,NW,313,2.0,-999.0,91,-99.99,,,0.00,weatherlink.com 1.10,2013-08-20 14:49:00,
2013-08-20 11:04:00,70.8,67.0,30.16,West,280,1.0,-999.0,88,-99.99,,,0.00,weatherlink.com 1.10,2013-08-20 15:04:00,
2013-08-20 11:19:00,72.6,68.0,30.16,South,188,2.0,-999.0,85,-99.99,,,0.00,weatherlink.com 1.10,2013-08-20 15:19:00,
2013-08-20 11:34:00,74.0,68.0,30.15,SW,221,1.0,-999.0,82,-99.99,,,0.00,weatherlink.com 1.10,2013-08-20 15:34:00,
2013-08-20 11:49:00,75.7,68.0,30.14,WSW,249,1.0,-999.0,78,-99.99,,,0.00,weatherlink.com 1.10,2013-08-20 15:49:00,
2013-08-20 12:04:00,77.8,69.0,30.14,SW,228,0.0,-999.0,75,-99.99,,,0.00,weatherlink.com 1.10,2013-08-20 16:04:00,
2013-08-20 12:19:00,79.5,67.0,30.14,SW,219,0.0,-999.0,65,-99.99,,,0.00,weatherlink.com 1.10,2013-08-20 16:19:00,
2013-08-20 12:34:00,80.1,65.0,30.13,NW,313,0.0,-999.0,61,-99.99,,,0.00,weatherlink.com 1.10,2013-08-20 16:34:00,
2013-08-20 12:49:00,81.4,67.0,30.12,NNE,19,0.0,-999.0,62,-99.99,,,0.00,weatherlink.com 1.10,2013-08-20 16:49:00,
2013-08-20 13:04:00,83.0,67.0,30.12,North,5,4.0,-999.0,58,-99.99,,,0.00,weatherlink.com 1.10,2013-08-20 17:04:00,
2013-08-20 13:19:00,83.1,66.0,30.12,SSW,195,1.0,-999.0,57,-99.99,,,0.00,weatherlink.com 1.10,2013-08-20 17:19:00,
2013-08-20 13:34:00,83.6,67.0,30.12,SSW,213,2.0,-999.0,57,-99.99,,,0.00,weatherlink.com 1.10,2013-08-20 17:34:00,
2013-08-20 13:49:00,84.1,68.0,30.12,WSW,246,1.0,-999.0,58,-99.99,,,0.00,weatherlink.com 1.10,2013-08-20 17:49:00,
2013-08-20 14:05:00,84.8,66.0,30.11,West,275,1.0,-999.0,53,-99.99,,,0.00,weatherlink.com 1.10,2013-08-20 18:05:00,
2013-08-20 14:20:00,85.4,66.0,30.11,WSW,257,0.0,-999.0,52,-99.99,,,0.00,weatherlink.com 1.10,2013-08-20 18:20:00,
2013-08-20 14:35:00,-999.0,-99.9,30.11,North,-999,0.0,-999.0,-999,-99.99,,,0.01,weatherlink.com 1.10,2013-08-20 18:35:00,
2013-08-20 14:50:00,-999.0,-99.9,30.11,North,-999,0.0,-999.0,-999,-99.99,,,0.01,weatherlink.com 1.10,2013-08-20 18:50:00,
2013-08-20 15:05:00,-999.0,-99.9,30.10,North,-999,0.0,-999.0,-999,-99.99,,,0.01,weatherlink.com 1.10,2013-08-20 19:05:00,
2013-08-20 15:20:00,-999.0,-99.9,30.10,North,-999,0.0,-999.0,-999,-99.99,,,0.01,weatherlink.com 1.10,2013-08-20 19:20:00,
2013-08-20 15:35:00,-999.0,-99.9,30.10,North,-999,0.0,-999.0,-999,-99.99,,,0.01,weatherlink.com 1.10,2013-08-20 19:35:00,
2013-08-20 15:50:00,-999.0,-99.9,30.10,North,-999,0.0,-999.0,-999,-99.99,,,0.01,weatherlink.com 1.10,2013-08-20 19:50:00,
2013-08-20 16:05:00,85.9,67.0,30.09,SW,231,2.0,-999.0,53,-99.99,,,0.01,weatherlink.com 1.10,2013-08-20 20:05:00,
2013-08-20 16:20:00,86.8,65.0,30.09,North,351,6.0,-999.0,49,-99.99,,,0.01,weatherlink.com 1.10,2013-08-20 20:20:00,
2013-08-20 16:35:00,87.1,66.0,30.08,West,263,0.0,-999.0,49,-99.99,,,0.01,weatherlink.com 1.10,2013-08-20 20:35:00,
2013-08-20 16:50:00,87.0,65.0,30.08,SW,232,3.0,-999.0,48,-99.99,,,0.01,weatherlink.com 1.10,2013-08-20 20:50:00,
2013-08-20 17:05:00,86.6,65.0,30.08,WSW,250,3.0,-999.0,49,-99.99,,,0.01,weatherlink.com 1.10,2013-08-20 21:05:00,
2013-08-20 17:10:00,86.3,65.5,30.08,WNW,292,2.0,2.0,50,0.00,,,0.01,Wunderground v.1.15,2013-08-20 21:10:00,
2013-08-20 17:15:00,86.1,64.1,30.08,WSW,248,2.0,2.0,48,0.00,,,0.01,Wunderground v.1.15,2013-08-20 21:15:00,
2013-08-20 17:20:00,86.3,64.3,30.08,WSW,253,2.0,2.0,48,0.00,,,0.01,Wunderground v.1.15,2013-08-20 21:20:00,
2013-08-20 17:21:00,86.3,64.0,30.08,SW,228,2.0,-999.0,48,-99.99,,,0.01,weatherlink.com 1.10,2013-08-20 21:21:00,
2013-08-20 17:30:00,86.1,64.1,30.08,WNW,282,2.0,2.0,48,0.00,,,0.01,Wunderground v.1.15,2013-08-20 21:30:00,
2013-08-20 17:35:00,85.9,64.0,30.08,West,281,2.0,-999.0,48,-99.99,,,0.01,weatherlink.com 1.10,2013-08-20 21:35:00,
2013-08-20 17:45:00,86.0,62.8,30.08,SW,220,2.0,2.0,46,0.00,,,0.01,Wunderground v.1.15,2013-08-20 21:45:00,
2013-08-20 17:50:00,86.2,63.6,30.08,SW,220,1.0,1.0,47,0.00,,,0.01,Wunderground v.1.15,2013-08-20 21:50:00,
2013-08-20 17:53:00,86.4,64.0,30.08,SW,222,1.0,-999.0,48,-99.99,,,0.01,weatherlink.com 1.10,2013-08-20 21:53:00,
2013-08-20 18:00:00,86.6,64.6,30.08,SW,221,0.0,1.0,48,0.00,,,0.01,Wunderground v.1.15,2013-08-20 22:00:00,
2013-08-20 18:06:00,86.8,65.0,30.08,SSW,208,0.0,-999.0,49,-99.99,,,0.01,weatherlink.com 1.10,2013-08-20 22:06:00,
2013-08-20 18:10:00,86.9,64.8,30.08,SW,219,1.0,5.0,48,0.00,,,0.01,Wunderground v.1.15,2013-08-20 22:10:00,
2013-08-20 18:15:00,86.9,65.4,30.08,SW,221,0.0,5.0,49,0.00,,,0.01,Wunderground v.1.15,2013-08-20 22:15:00,
2013-08-20 18:21:00,87.0,64.0,30.08,SW,221,0.0,-999.0,47,-99.99,,,0.01,weatherlink.com 1.10,2013-08-20 22:21:00,
2013-08-20 18:30:00,87.0,65.5,30.07,SW,221,0.0,5.0,49,0.00,,,0.01,Wunderground v.1.15,2013-08-20 22:30:00,
2013-08-20 18:35:00,87.0,66.1,30.07,SW,221,0.0,5.0,50,0.00,,,0.01,Wunderground v.1.15,2013-08-20 22:35:00,
2013-08-20 18:36:00,86.9,65.0,30.07,SW,221,2.0,-999.0,49,-99.99,,,0.01,weatherlink.com 1.10,2013-08-20 22:36:00,
2013-08-20 18:45:00,86.7,67.0,30.07,SW,221,0.0,5.0,52,0.00,,,0.01,Wunderground v.1.15,2013-08-20 22:45:00,
2013-08-20 18:50:00,86.7,67.5,30.07,SW,221,0.0,5.0,53,0.00,,,0.01,Wunderground v.1.15,2013-08-20 22:50:00,
2013-08-20 18:51:00,86.6,68.0,30.07,SW,221,0.0,-999.0,54,-99.99,,,0.01,weatherlink.com 1.10,2013-08-20 22:51:00,
2013-08-20 18:55:00,86.5,67.3,30.07,SW,221,0.0,5.0,53,0.00,,,0.01,Wunderground v.1.15,2013-08-20 22:55:00,
2013-08-20 19:00:00,86.3,67.7,30.08,SW,221,0.0,5.0,54,0.00,,,0.01,Wunderground v.1.15,2013-08-20 23:00:00,
2013-08-20 19:07:00,85.9,68.0,30.08,SW,221,0.0,-999.0,55,-99.99,,,0.01,weatherlink.com 1.10,2013-08-20 23:07:00,
2013-08-20 19:15:00,85.5,68.0,30.08,SW,221,0.0,5.0,56,0.00,,,0.01,Wunderground v.1.15,2013-08-20 23:15:00,
2013-08-20 19:20:00,85.2,67.7,30.08,SW,221,0.0,5.0,56,0.00,,,0.01,Wunderground v.1.15,2013-08-20 23:20:00,
2013-08-20 19:22:00,85.0,68.0,30.08,SW,221,0.0,-999.0,57,-99.99,,,0.01,weatherlink.com 1.10,2013-08-20 23:22:00,
2013-08-20 19:30:00,84.0,66.6,30.08,SW,221,0.0,5.0,56,0.00,,,0.01,Wunderground v.1.15,2013-08-20 23:30:00,
2013-08-20 19:35:00,83.6,66.2,30.08,SW,221,0.0,5.0,56,0.00,,,0.01,Wunderground v.1.15,2013-08-20 23:35:00,
2013-08-20 19:36:00,83.4,66.0,30.08,SW,221,0.0,-999.0,56,-99.99,,,0.01,weatherlink.com 1.10,2013-08-20 23:36:00,
2013-08-20 19:45:00,82.0,65.8,30.08,SW,221,0.0,5.0,58,0.00,,,0.01,Wunderground v.1.15,2013-08-20 23:45:00,
2013-08-20 19:50:00,81.2,65.5,30.08,SW,221,0.0,5.0,59,0.00,,,0.01,Wunderground v.1.15,2013-08-20 23:50:00,
2013-08-20 19:52:00,80.8,65.0,30.09,SW,221,0.0,-999.0,59,-99.99,,,0.01,weatherlink.com 1.10,2013-08-20 23:52:00,
2013-08-20 20:00:00,79.7,64.6,30.09,SW,221,0.0,5.0,60,0.00,,,0.01,Wunderground v.1.15,2013-08-21 00:00:00,
2013-08-20 20:05:00,78.9,64.8,30.09,SW,221,0.0,5.0,62,0.00,,,0.01,Wunderground v.1.15,2013-08-21 00:05:00,
2013-08-20 20:08:00,78.4,65.0,30.09,SW,221,0.0,-999.0,63,-99.99,,,0.01,weatherlink.com 1.10,2013-08-21 00:08:00,
2013-08-20 20:15:00,77.3,64.2,30.09,SW,221,0.0,5.0,64,0.00,,,0.01,Wunderground v.1.15,2013-08-21 00:15:00,
2013-08-20 20:20:00,76.5,64.3,30.09,SW,221,0.0,5.0,66,0.00,,,0.01,Wunderground v.1.15,2013-08-21 00:20:00,
2013-08-20 20:23:00,76.0,64.0,30.09,SW,221,0.0,-999.0,67,-99.99,,,0.01,weatherlink.com 1.10,2013-08-21 00:23:00,
2013-08-20 20:30:00,75.0,64.1,30.10,SW,221,0.0,5.0,69,0.00,,,0.01,Wunderground v.1.15,2013-08-21 00:30:00,
2013-08-20 20:35:00,74.2,64.2,30.10,SW,221,0.0,5.0,71,0.00,,,0.01,Wunderground v.1.15,2013-08-21 00:35:00,
2013-08-20 20:38:00,73.7,64.0,30.10,SW,221,0.0,-999.0,71,-99.99,,,0.01,weatherlink.com 1.10,2013-08-21 00:38:00,
2013-08-20 20:45:00,72.9,63.7,30.10,SW,221,0.0,5.0,73,0.00,,,0.01,Wunderground v.1.15,2013-08-21 00:45:00,
2013-08-20 20:53:00,71.9,63.0,30.10,SW,221,0.0,-999.0,74,-99.99,,,0.01,weatherlink.com 1.10,2013-08-21 00:53:00,
2013-08-20 20:55:00,71.7,63.4,30.10,SW,221,0.0,5.0,75,0.00,,,0.01,Wunderground v.1.15,2013-08-21 00:55:00,
2013-08-20 21:00:00,71.2,63.2,30.10,SW,221,0.0,5.0,76,0.00,,,0.01,Wunderground v.1.15,2013-08-21 01:00:00,
2013-08-20 21:05:00,70.8,62.9,30.11,SW,221,0.0,5.0,76,0.00,,,0.01,Wunderground v.1.15,2013-08-21 01:05:00,
2013-08-20 21:08:00,70.4,63.0,30.11,SW,221,0.0,-999.0,77,-99.99,,,0.01,weatherlink.com 1.10,2013-08-21 01:08:00,
2013-08-20 21:15:00,69.8,62.6,30.11,SW,221,0.0,5.0,78,0.00,,,0.01,Wunderground v.1.15,2013-08-21 01:15:00,
2013-08-20 21:20:00,69.5,62.3,30.12,SW,221,0.0,5.0,78,0.00,,,0.01,Wunderground v.1.15,2013-08-21 01:20:00,
2013-08-20 21:23:00,69.2,62.0,30.11,SW,221,0.0,-999.0,79,-99.99,,,0.01,weatherlink.com 1.10,2013-08-21 01:23:00,
2013-08-20 21:38:00,68.1,62.0,30.12,SW,221,0.0,-999.0,81,-99.99,,,0.01,weatherlink.com 1.10,2013-08-21 01:38:00,
2013-08-20 21:53:00,67.1,61.0,30.12,SW,221,0.0,-999.0,82,-99.99,,,0.01,weatherlink.com 1.10,2013-08-21 01:53:00,
2013-08-20 22:08:00,66.2,61.0,30.12,SW,221,0.0,-999.0,83,-99.99,,,0.01,weatherlink.com 1.10,2013-08-21 02:08:00,
2013-08-20 22:23:00,65.4,61.0,30.13,SW,221,0.0,-999.0,84,-99.99,,,0.01,weatherlink.com 1.10,2013-08-21 02:23:00,
2013-08-20 22:38:00,64.6,60.0,30.13,SW,221,0.0,-999.0,86,-99.99,,,0.01,weatherlink.com 1.10,2013-08-21 02:38:00,
2013-08-20 22:53:00,64.0,60.0,30.13,SW,221,0.0,-999.0,86,-99.99,,,0.01,weatherlink.com 1.10,2013-08-21 02:53:00,
2013-08-20 23:08:00,63.3,59.0,30.13,SW,221,0.0,-999.0,87,-99.99,,,0.01,weatherlink.com 1.10,2013-08-21 03:08:00,
2013-08-20 23:23:00,62.7,59.0,30.13,SW,221,0.0,-999.0,88,-99.99,,,0.01,weatherlink.com 1.10,2013-08-21 03:23:00,
2013-08-20 23:38:00,62.2,59.0,30.14,SW,221,0.0,-999.0,88,-99.99,,,0.01,weatherlink.com 1.10,2013-08-21 03:38:00,
2013-08-20 23:53:00,61.7,59.0,30.14,SW,221,0.0,-999.0,89,-99.99,,,0.01,weatherlink.com 1.10,2013-08-21 03:53:00,